»·PEaware :: SKY1022 KCLM-KFHR

SKY1022 :: KCLM-KFHR

FLIGHT INFORMATION

Flight Status: Arrived
Operator:
Sky High Charters
More flights by this operator :: More flights under this callsign
Pilot: Martin A. (6413)
Aircraft: CESSNA 340
(C340)
More flights by this aircraft type
Origin: KCLM Fairchild Intl
United States
Destination: KFHR Friday Harbor
United States
More flights between these airports :: More routes between these airports
Route: WATTR7 WATTR
File this flight plan on PilotEdge
Remarks: SCENARIO 3
Altitude:
(Current/Filed)
5,000ft
Speed:
(Current/Filed)
160kts
Departed: 06-Sep-19 02:46 PM
Arrived: 06-Sep-19 03:15 PM
Distance/Time
Traveled:
31nm/0:29
Distance/Time
To Go:
Arrived

Flight Plot

Page will automatically refresh every two minutes.


Map Options




Map Legend


Flown Route
Filed Route
Departure Airport
Arrival Airport
Navaid (VOR, NDB)
Fix

Horizontal Profiles

Position Reports

Time Latitude Longitude Heading Altitude Ground
Speed
06-Sep-19 14:22 48.117075 -123.500552 104 271ft 0kts
06-Sep-19 14:23 48.117075 -123.500552 104 271ft 0kts
06-Sep-19 14:25 48.117075 -123.500552 104 271ft 0kts
06-Sep-19 14:25 48.117075 -123.500552 104 271ft 0kts
06-Sep-19 14:26 48.117075 -123.500552 104 271ft 0kts
06-Sep-19 14:27 48.117075 -123.500552 104 271ft 0kts
06-Sep-19 14:28 48.117075 -123.500552 104 271ft 0kts
06-Sep-19 14:29 48.117075 -123.500552 104 271ft 0kts
06-Sep-19 14:30 48.117075 -123.500552 104 271ft 0kts
06-Sep-19 14:31 48.117075 -123.500552 104 271ft 0kts
06-Sep-19 14:32 48.117075 -123.500552 104 271ft 0kts
06-Sep-19 14:33 48.117075 -123.500552 104 271ft 0kts
06-Sep-19 14:34 48.117075 -123.500552 104 271ft 0kts
06-Sep-19 14:35 48.117075 -123.500552 104 271ft 0kts
06-Sep-19 14:36 48.117075 -123.500552 104 271ft 0kts
06-Sep-19 14:37 48.117075 -123.500552 104 271ft 0kts
06-Sep-19 14:38 48.117075 -123.500552 104 271ft 0kts
06-Sep-19 14:39 48.117805 -123.500057 28 271ft 3kts
06-Sep-19 14:40 48.117385 -123.496775 90 271ft 12kts
06-Sep-19 14:41 48.116814 -123.491741 104 271ft 12kts
06-Sep-19 14:42 48.116021 -123.487123 103 271ft 0kts
06-Sep-19 14:43 48.116135 -123.486603 14 271ft 2kts
06-Sep-19 14:44 48.116744 -123.486849 282 271ft 0kts
06-Sep-19 14:45 48.121120 -123.510814 285 839ft 99kts
06-Sep-19 14:46 48.135503 -123.526142 22 1787ft 119kts
06-Sep-19 14:47 48.140753 -123.469032 90 2750ft 146kts
06-Sep-19 14:48 48.140282 -123.409967 90 3999ft 143kts
06-Sep-19 14:49 48.138577 -123.348697 94 4988ft 159kts
06-Sep-19 14:50 48.138084 -123.273269 89 4973ft 191kts
06-Sep-19 14:51 48.138837 -123.192228 89 4971ft 195kts
06-Sep-19 14:52 48.139614 -123.110634 89 4971ft 196kts
06-Sep-19 14:53 48.140271 -123.028917 89 4980ft 195kts
06-Sep-19 14:54 48.140747 -122.948050 89 4989ft 193kts
06-Sep-19 14:55 48.177395 -122.916565 348 4996ft 185kts
06-Sep-19 14:56 48.226262 -122.940664 336 4987ft 185kts
06-Sep-19 14:57 48.274084 -122.969920 336 4975ft 186kts
06-Sep-19 14:58 48.324992 -122.987476 347 4908ft 190kts
06-Sep-19 14:59 48.376420 -123.001745 348 4555ft 185kts
06-Sep-19 15:00 48.426809 -123.016108 348 4156ft 184kts
06-Sep-19 15:01 48.476929 -123.024052 356 3964ft 178kts
06-Sep-19 15:02 48.528900 -123.028025 359 3965ft 191kts
06-Sep-19 15:03 48.558808 -122.989410 128 3956ft 179kts
06-Sep-19 15:04 48.520537 -123.014686 230 3964ft 183kts
06-Sep-19 15:05 48.475814 -123.030927 173 3857ft 172kts
06-Sep-19 15:06 48.428404 -123.019640 175 3236ft 175kts
06-Sep-19 15:07 48.386687 -122.988152 132 2434ft 174kts
06-Sep-19 15:08 48.353057 -122.939519 181 2291ft 171kts
06-Sep-19 15:09 48.350776 -122.994879 308 2285ft 182kts
06-Sep-19 15:10 48.395099 -123.025502 355 2328ft 188kts
06-Sep-19 15:11 48.445226 -123.031168 355 1499ft 170kts
06-Sep-19 15:12 48.484783 -123.027335 30 652ft 108kts
06-Sep-19 15:13 48.510854 -123.023542 2 223ft 89kts
06-Sep-19 15:14 48.523937 -123.025137 0 116ft 6kts
06-Sep-19 15:15 48.524678 -123.025799 88 116ft 0kts
06-Sep-19 15:16 48.524678 -123.025799 88 116ft 0kts
06-Sep-19 15:17 48.524678 -123.025799 88 116ft 0kts
06-Sep-19 15:18 48.524678 -123.025799 88 116ft 0kts
06-Sep-19 15:19 48.524678 -123.025799 88 116ft 0kts

Navigation Log

Ident Type
Flight plan parsing failed, navigation log unavailable